Limon, CO

1:09 AM MDT on April 27, 2015 (GMT -0600)
Limon Municipal | | Change Station
CLOSE
Current Station
Airport
Location: Limon,
Elevation: 5364 ft
Nearby Weather Stations

Elev 5364 ft 39.27 °N, 103.67 °W | Updated 14 minutes ago

Overcast
Overcast
39 °F
Feels Like 33 °F
N
9
Wind Variable Wind from NNE

Today
High -- | Low -- °F
--% Chance of Precip.
Yesterday
High -- | Low -- °F
Precip. -- in
6:01 AM 7:43 PM
Waxing Gibbous, 62% visible
Pressure 30.05 in
Visibility 4.0 miles
Clouds Scattered Clouds 600 ft
Overcast 1200 ft
Windchill 33 °F
Dew Point 39 °F
Humidity 100%
Rainfall 0.00 in
Snow Depth Not available.
UV 0 out of 12
Pollen 4.70 out of 12
Air Quality Not available.
Flu Activity Sporadic
METAR KLIC 270655Z AUTO 02008KT 4SM BR SCT006 OVC012 04/04 A3008 RMK AO2 SLP174 T00390039 401000039

More Conditions Fewer Conditions

Pressure 30.05 in
Visibility 4.0 miles
Clouds Scattered Clouds 600 ft
Overcast 1200 ft
Windchill 33 °F
Dew Point 39 °F
Humidity 100%
Rainfall 0.00 in
Snow Depth Not available.
UV 0 out of 12
Pollen 4.70 out of 12
Air Quality Not available.
Flu Activity Sporadic
METAR KLIC 270655Z AUTO 02008KT 4SM BR SCT006 OVC012 04/04 A3008 RMK AO2 SLP174 T00390039 401000039

More Conditions Fewer Conditions

Nowcast | as of 8:51 PM MDT on April 26, 2015

Scattered light rain showers will continue across Elbert and Lincoln counties into the early morning hours. There will also be areas of fog with visibilities as low as half a mile.

×

10-Day Weather Forecast

Almanac

Astronomy

Apr. 27, 2015 Rise Set
Actual Time
Civil Twilight
Nautical Twilight
Astronomical Twilight
Moon
Length of Visible Light
Length of Day
Tomorrow will be .
, % of the Moon is Illuminated

Today's Extremes

State Highs State Lows

Community

WunderPhotos

Upload Photos

1,817,267 photos uploaded!

WunderBlogs® & News

Nearby

Air Quality

  Air Quality AQ Index Pollutant
Not available.

Snow Depth

Station Depth Elevation

Earthquake Activity

City Distance Mag. Time & Date
Minimum magnitude displayed is 2.5.

Coastal Water Temperatures

Place Temperature

Stations

Nearby Weather Stations

Station Location Temp. Windchill Dew Point Humidity Wind Precip. Elev Updated Type